Time;durP1;ratioP1;P1;durP2;ratioP2;P2;SDS_P1;SDS_P2;PMS_P1;PMS_P2;Temp;Humidity;BMP_temperature;BMP_pressure;BME280_temperature;BME280_humidity;BME280_pressure;Samples;Min_cycle;Max_cycle;Signal;HPM_P1;HPM_P2
2022/10/22 00:00:56;;;;;;;2.17;1.20;;;14.00;99.90;;;;;;4859486;29;20267;-86
2022/10/22 00:03:22;;;;;;;2.10;1.10;;;14.00;99.90;;;;;;4843508;29;20299;-86
2022/10/22 00:05:48;;;;;;;2.87;1.10;;;14.00;99.90;;;;;;4843927;29;20185;-86
2022/10/22 00:08:14;;;;;;;1.73;0.90;;;14.00;99.90;;;;;;4859312;29;20187;-86
2022/10/22 00:10:41;;;;;;;2.87;1.10;;;14.00;99.90;;;;;;4859150;29;20181;-86
2022/10/22 00:13:06;;;;;;;1.07;0.90;;;13.90;99.90;;;;;;4843487;29;20216;-86
2022/10/22 00:15:32;;;;;;;2.77;1.00;;;13.90;99.90;;;;;;4843837;29;20188;-86
2022/10/22 00:17:58;;;;;;;1.43;0.90;;;13.90;99.90;;;;;;4843544;29;20244;-86
2022/10/22 00:20:24;;;;;;;1.10;0.90;;;13.90;99.90;;;;;;4843745;29;20184;-86
2022/10/22 00:22:50;;;;;;;0.70;0.70;;;13.90;99.90;;;;;;4844067;29;20224;-86
2022/10/22 00:25:16;;;;;;;1.23;0.90;;;13.80;99.90;;;;;;4843876;29;20216;-86
2022/10/22 00:27:42;;;;;;;3.47;0.90;;;13.80;99.90;;;;;;4843742;29;20279;-86
2022/10/22 00:30:08;;;;;;;0.60;0.60;;;13.80;99.90;;;;;;4843654;29;20184;-86
2022/10/22 00:32:34;;;;;;;1.30;0.83;;;13.80;99.90;;;;;;4843373;29;20256;-86
2022/10/22 00:35:00;;;;;;;1.30;0.80;;;13.80;99.90;;;;;;4843570;29;20200;-87
2022/10/22 00:37:26;;;;;;;2.13;1.00;;;13.70;99.90;;;;;;4843396;29;20185;-86
2022/10/22 00:39:52;;;;;;;1.77;1.00;;;13.70;99.90;;;;;;4858915;29;20185;-86
2022/10/22 00:42:21;;;;;;;2.67;0.97;;;13.70;99.90;;;;;;4843264;29;20253;-86
2022/10/22 00:45:08;;;;;;;3.13;0.70;;;13.70;99.90;;;;;;4843224;29;20185;-86
2022/10/22 00:47:36;;;;;;;2.27;0.83;;;13.70;99.90;;;;;;4843358;29;20173;-86
2022/10/22 00:50:04;;;;;;;1.70;0.90;;;13.70;99.90;;;;;;4843576;29;20268;-86
2022/10/22 00:52:31;;;;;;;1.67;0.80;;;13.70;99.90;;;;;;4843356;29;20209;-86
2022/10/22 00:54:57;;;;;;;2.73;0.87;;;13.70;99.90;;;;;;4843626;29;20275;-86
2022/10/22 00:57:23;;;;;;;1.30;0.80;;;13.70;99.90;;;;;;4843214;29;20244;-86
2022/10/22 00:59:49;;;;;;;1.43;0.93;;;13.70;99.90;;;;;;4858892;29;20196;-86
2022/10/22 01:02:16;;;;;;;2.27;0.87;;;13.70;99.90;;;;;;4858521;29;20217;-86
2022/10/22 01:05:14;;;;;;;1.27;0.93;;;13.70;99.90;;;;;;4843149;29;20184;-86
2022/10/22 01:07:45;;;;;;;0.97;0.80;;;13.70;99.90;;;;;;4858547;29;20200;-86
2022/10/22 01:10:37;;;;;;;1.27;0.70;;;13.70;99.90;;;;;;4840508;29;20196;-86
2022/10/22 01:13:21;;;;;;;3.20;0.73;;;13.70;99.90;;;;;;4842894;29;20217;-86
2022/10/22 01:16:28;;;;;;;0.70;0.67;;;13.70;99.90;;;;;;4843560;29;20212;-86
2022/10/22 01:19:04;;;;;;;2.50;0.90;;;13.70;99.90;;;;;;4861397;29;20189;-86
2022/10/22 01:21:44;;;;;;;1.30;0.83;;;13.70;99.90;;;;;;4871839;29;20204;-86
2022/10/22 01:24:10;;;;;;;2.63;0.90;;;13.60;99.90;;;;;;4861360;29;20180;-86
2022/10/22 01:26:44;;;;;;;1.80;1.17;;;13.60;99.90;;;;;;4859962;29;20196;-86
2022/10/22 01:29:16;;;;;;;1.83;1.40;;;13.60;99.90;;;;;;4843064;29;20173;-86
2022/10/22 01:31:46;;;;;;;3.07;1.30;;;13.60;99.90;;;;;;4841444;29;20189;-86
2022/10/22 01:34:15;;;;;;;2.00;0.90;;;13.60;99.90;;;;;;4861626;29;20200;-86
2022/10/22 01:36:42;;;;;;;3.80;1.10;;;13.60;99.90;;;;;;4846056;29;20242;-86
2022/10/22 01:39:11;;;;;;;1.97;1.00;;;13.50;99.90;;;;;;4846102;29;20192;-86
2022/10/22 01:41:39;;;;;;;1.30;0.87;;;13.50;99.90;;;;;;4861403;29;20212;-86
2022/10/22 01:44:05;;;;;;;1.03;0.90;;;13.40;99.90;;;;;;4861779;29;20184;-86
2022/10/22 01:46:31;;;;;;;1.57;1.17;;;13.40;99.90;;;;;;4861359;29;20185;-86
2022/10/22 01:48:57;;;;;;;1.07;0.90;;;13.40;99.90;;;;;;4861111;29;20240;-86
2022/10/22 01:52:01;;;;;;;1.17;0.80;;;13.30;99.90;;;;;;4861507;29;20181;-86
2022/10/22 01:54:36;;;;;;;1.20;0.90;;;13.30;99.90;;;;;;4861359;29;20185;-86
2022/10/22 01:57:33;;;;;;;2.63;0.80;;;13.30;99.90;;;;;;4861221;29;20242;-86
2022/10/22 02:00:09;;;;;;;2.93;1.27;;;13.30;99.90;;;;;;4860979;29;20173;-86
2022/10/22 02:02:53;;;;;;;0.90;0.70;;;13.20;99.90;;;;;;4860151;29;20247;-86
2022/10/22 02:05:35;;;;;;;1.37;0.93;;;13.20;99.90;;;;;;4861144;29;20215;-87
2022/10/22 02:08:06;;;;;;;1.83;0.80;;;13.20;99.90;;;;;;4860887;29;20181;-86
2022/10/22 02:10:35;;;;;;;0.70;0.70;;;13.10;99.90;;;;;;4845869;29;20181;-87
2022/10/22 02:13:03;;;;;;;0.80;0.80;;;13.10;99.90;;;;;;4860728;29;20219;-87
2022/10/22 02:15:31;;;;;;;2.63;0.70;;;13.00;99.90;;;;;;4860870;29;20276;-86
2022/10/22 02:18:00;;;;;;;2.10;0.67;;;13.10;99.90;;;;;;4860891;29;20259;-86
2022/10/22 02:20:42;;;;;;;2.23;1.10;;;13.10;99.90;;;;;;4860842;29;20184;-86
2022/10/22 02:23:09;;;;;;;2.67;0.93;;;13.10;99.90;;;;;;4844211;29;20220;-86
2022/10/22 02:25:39;;;;;;;1.17;0.90;;;13.10;99.90;;;;;;4845593;29;20192;-86
2022/10/22 02:28:10;;;;;;;2.93;0.80;;;13.20;99.90;;;;;;4845273;29;20631;-86
2022/10/22 02:30:38;;;;;;;1.70;0.70;;;13.20;99.90;;;;;;4845293;29;20216;-86
2022/10/22 02:33:27;;;;;;;1.40;0.73;;;13.20;99.90;;;;;;4845165;29;20201;-86
2022/10/22 02:35:54;;;;;;;1.20;0.70;;;13.20;99.90;;;;;;4860494;29;20356;-86
2022/10/22 02:38:22;;;;;;;2.10;0.83;;;13.20;99.90;;;;;;4860290;29;20196;-86
2022/10/22 02:40:48;;;;;;;1.37;0.83;;;13.20;99.90;;;;;;4860493;29;20195;-86
2022/10/22 02:43:16;;;;;;;1.00;0.70;;;13.20;99.90;;;;;;4844894;29;20224;-86
2022/10/22 02:45:42;;;;;;;1.07;0.90;;;13.20;99.90;;;;;;4860228;29;20188;-86
2022/10/22 02:48:08;;;;;;;1.80;0.60;;;13.20;99.90;;;;;;4845037;29;20181;-86
2022/10/22 02:50:34;;;;;;;0.60;0.60;;;13.20;99.90;;;;;;4844851;29;20188;-87
2022/10/22 02:52:59;;;;;;;1.47;0.87;;;13.20;99.90;;;;;;4844851;29;20215;-86
2022/10/22 02:55:25;;;;;;;1.70;1.00;;;13.20;99.90;;;;;;4859993;29;20252;-86
2022/10/22 02:57:51;;;;;;;1.53;0.90;;;13.20;99.90;;;;;;4860268;29;20189;-86
2022/10/22 03:00:17;;;;;;;1.77;0.97;;;13.20;99.90;;;;;;4860183;29;20203;-86
2022/10/22 03:02:43;;;;;;;0.90;0.80;;;13.20;99.90;;;;;;4859748;29;20341;-86
2022/10/22 03:05:09;;;;;;;2.50;0.80;;;13.20;99.90;;;;;;4860191;29;20272;-86
2022/10/22 03:07:35;;;;;;;1.23;0.70;;;13.20;99.90;;;;;;4860043;29;20213;-86
2022/10/22 03:10:01;;;;;;;0.87;0.80;;;13.20;99.90;;;;;;4860215;29;20185;-86
2022/10/22 03:12:27;;;;;;;2.73;0.80;;;13.20;99.90;;;;;;4860138;29;20294;-86
2022/10/22 03:14:53;;;;;;;1.40;0.70;;;13.20;99.90;;;;;;4859857;29;20185;-86
2022/10/22 03:17:18;;;;;;;3.07;0.90;;;13.20;99.90;;;;;;4859515;29;20228;-86
2022/10/22 03:19:44;;;;;;;0.90;0.67;;;13.20;99.90;;;;;;4859608;29;20185;-86
2022/10/22 03:22:20;;;;;;;1.40;0.80;;;13.20;99.90;;;;;;4859388;29;20216;-86
2022/10/22 03:24:50;;;;;;;1.27;0.87;;;13.20;99.90;;;;;;4844400;29;20212;-86
2022/10/22 03:27:19;;;;;;;0.90;0.77;;;13.10;99.90;;;;;;4843972;29;20180;-86
2022/10/22 03:29:45;;;;;;;2.00;0.60;;;13.10;99.90;;;;;;4860038;29;20185;-86
2022/10/22 03:32:12;;;;;;;0.87;0.73;;;13.20;99.90;;;;;;4843977;29;20707;-86
2022/10/22 03:34:38;;;;;;;2.57;0.77;;;13.10;99.90;;;;;;4840686;29;20212;-87
2022/10/22 03:37:04;;;;;;;1.80;0.63;;;13.20;99.90;;;;;;4840961;29;20185;-87
2022/10/22 03:39:33;;;;;;;2.83;0.70;;;13.20;99.90;;;;;;4839229;29;20200;-87
2022/10/22 03:41:59;;;;;;;1.33;0.70;;;13.20;99.90;;;;;;4859228;29;20216;-87
2022/10/22 03:44:27;;;;;;;0.87;0.70;;;13.10;99.90;;;;;;4844191;29;20234;-87
2022/10/22 03:46:53;;;;;;;1.00;0.70;;;13.10;99.90;;;;;;4859118;29;20181;-87
2022/10/22 03:49:18;;;;;;;2.13;0.60;;;13.10;99.90;;;;;;4859397;29;20220;-87
2022/10/22 03:51:44;;;;;;;1.07;0.53;;;13.20;99.90;;;;;;4859315;29;20212;-87
2022/10/22 03:54:10;;;;;;;1.63;0.60;;;13.10;99.90;;;;;;4859438;29;20188;-87
2022/10/22 03:56:36;;;;;;;1.90;0.73;;;13.10;99.90;;;;;;4859082;29;20184;-87
2022/10/22 03:59:03;;;;;;;1.40;0.60;;;13.10;99.90;;;;;;4859484;29;20192;-87
2022/10/22 04:01:37;;;;;;;1.40;0.60;;;13.10;99.90;;;;;;4858508;29;20587;-87
2022/10/22 04:04:02;;;;;;;0.63;0.60;;;13.10;99.90;;;;;;4859243;29;20187;-86
2022/10/22 04:06:29;;;;;;;1.27;0.80;;;13.10;99.90;;;;;;4859020;29;20184;-87
2022/10/22 04:08:55;;;;;;;1.43;0.67;;;13.00;99.90;;;;;;4856971;29;20177;-87
2022/10/22 04:11:21;;;;;;;1.77;0.80;;;13.00;99.90;;;;;;4840492;29;20189;-87
2022/10/22 04:13:47;;;;;;;0.77;0.50;;;12.90;99.90;;;;;;4850081;29;20227;-87
2022/10/22 04:16:15;;;;;;;1.40;0.60;;;12.90;99.90;;;;;;4859279;29;20180;-87
2022/10/22 04:18:43;;;;;;;1.70;0.60;;;12.90;99.90;;;;;;4858509;29;20179;-87
2022/10/22 04:21:10;;;;;;;0.80;0.40;;;12.90;99.90;;;;;;4858475;29;20684;-87
2022/10/22 04:23:36;;;;;;;2.83;0.77;;;12.90;99.90;;;;;;4859026;29;20207;-87
2022/10/22 04:26:06;;;;;;;0.70;0.43;;;12.80;99.90;;;;;;4858951;29;20245;-87
2022/10/22 04:28:33;;;;;;;0.93;0.70;;;12.80;99.90;;;;;;4858953;29;20188;-87
2022/10/22 04:30:59;;;;;;;2.57;0.60;;;12.80;99.90;;;;;;4858909;29;20177;-87
2022/10/22 04:33:25;;;;;;;0.83;0.70;;;12.90;99.90;;;;;;4858851;29;20212;-87
2022/10/22 04:35:51;;;;;;;1.50;0.60;;;12.80;99.90;;;;;;4858697;29;20611;-87
2022/10/22 04:38:16;;;;;;;0.73;0.60;;;12.80;99.90;;;;;;4858944;29;20196;-87
2022/10/22 04:40:42;;;;;;;2.07;1.07;;;12.80;99.90;;;;;;4857246;29;20265;-87
2022/10/22 04:43:08;;;;;;;1.80;0.60;;;12.80;99.90;;;;;;4858668;29;20220;-87
2022/10/22 04:45:35;;;;;;;0.80;0.60;;;12.90;99.90;;;;;;4843948;29;20177;-87
2022/10/22 04:48:01;;;;;;;1.73;0.90;;;12.90;99.90;;;;;;4846523;29;20230;-87
2022/10/22 04:50:27;;;;;;;0.83;0.60;;;12.90;99.90;;;;;;4847218;29;20208;-87
2022/10/22 04:52:53;;;;;;;1.17;0.60;;;12.90;99.90;;;;;;4861987;29;20204;-87
2022/10/22 04:55:19;;;;;;;1.87;0.70;;;12.90;99.90;;;;;;4861791;29;20191;-87
2022/10/22 04:57:45;;;;;;;4.83;0.80;;;12.90;99.90;;;;;;4861927;29;20185;-87
2022/10/22 05:00:11;;;;;;;0.60;0.60;;;12.90;99.90;;;;;;4846867;29;20271;-87
2022/10/22 05:02:37;;;;;;;1.07;0.67;;;12.90;99.90;;;;;;4846966;29;20272;-87
2022/10/22 05:05:03;;;;;;;0.83;0.70;;;12.90;99.90;;;;;;4862177;29;20185;-87
2022/10/22 05:07:29;;;;;;;0.60;0.57;;;13.00;99.90;;;;;;4846621;29;20181;-87
2022/10/22 05:09:55;;;;;;;2.13;0.80;;;13.00;99.90;;;;;;4846434;29;20180;-87
2022/10/22 05:12:20;;;;;;;1.80;0.60;;;13.00;99.90;;;;;;4846559;29;20212;-87
2022/10/22 05:14:46;;;;;;;0.80;0.80;;;13.00;99.90;;;;;;4862144;29;20192;-87
2022/10/22 05:17:12;;;;;;;2.33;0.77;;;13.00;99.90;;;;;;4846697;29;20306;-87
2022/10/22 05:19:38;;;;;;;1.00;0.80;;;13.00;99.90;;;;;;4846889;29;20556;-87
2022/10/22 05:22:04;;;;;;;1.87;0.90;;;13.00;99.90;;;;;;4846346;29;20272;-86
2022/10/22 05:24:33;;;;;;;2.13;0.80;;;13.00;99.90;;;;;;4846295;29;20184;-87
2022/10/22 05:26:59;;;;;;;0.83;0.73;;;13.00;99.90;;;;;;4846575;29;20208;-87
2022/10/22 05:29:26;;;;;;;1.70;0.87;;;13.00;99.90;;;;;;4846256;29;20213;-87
2022/10/22 05:31:52;;;;;;;1.53;0.90;;;13.00;99.90;;;;;;4846045;29;20208;-87
2022/10/22 05:34:19;;;;;;;0.77;0.70;;;13.00;99.90;;;;;;4846093;29;20201;-87
2022/10/22 05:36:45;;;;;;;1.20;1.00;;;13.00;99.90;;;;;;4876405;29;20257;-87
2022/10/22 05:39:11;;;;;;;1.87;1.20;;;13.10;99.90;;;;;;4877321;29;20196;-87
2022/10/22 05:41:37;;;;;;;2.47;1.13;;;13.00;99.90;;;;;;4861286;29;20212;-87
2022/10/22 05:44:04;;;;;;;1.20;0.97;;;13.00;99.90;;;;;;4861262;29;20205;-87
2022/10/22 05:46:34;;;;;;;1.30;0.90;;;13.00;99.90;;;;;;4858349;29;20181;-86
2022/10/22 05:49:18;;;;;;;1.20;0.90;;;13.00;99.90;;;;;;4861532;29;20198;-87
2022/10/22 05:51:43;;;;;;;1.30;0.80;;;13.00;99.90;;;;;;4868249;29;20190;-87
2022/10/22 05:54:46;;;;;;;1.20;0.90;;;13.00;99.90;;;;;;4860684;29;20279;-87
2022/10/22 05:57:11;;;;;;;0.93;0.90;;;13.00;99.90;;;;;;4860824;29;20181;-87
2022/10/22 05:59:37;;;;;;;1.30;0.80;;;13.00;99.90;;;;;;4845951;29;20241;-87
2022/10/22 06:02:44;;;;;;;2.43;0.90;;;13.00;99.90;;;;;;4860345;29;20223;-87
2022/10/22 06:05:09;;;;;;;2.53;1.10;;;12.90;99.90;;;;;;4860997;29;20268;-87
2022/10/22 06:07:35;;;;;;;1.73;1.10;;;12.80;99.90;;;;;;4861110;29;20264;-87
2022/10/22 06:10:01;;;;;;;2.13;0.90;;;12.80;99.90;;;;;;4860926;29;20239;-87
2022/10/22 06:12:27;;;;;;;2.63;1.00;;;12.70;99.90;;;;;;4860695;29;20219;-87
2022/10/22 06:14:53;;;;;;;1.27;0.90;;;12.70;99.90;;;;;;4876629;29;20185;-88
2022/10/22 06:17:19;;;;;;;1.57;0.90;;;12.60;99.90;;;;;;4860628;29;20177;-88
2022/10/22 06:19:45;;;;;;;2.80;0.90;;;12.60;99.90;;;;;;4847942;29;20258;-76
2022/10/22 06:22:11;;;;;;;1.90;1.00;;;12.60;99.90;;;;;;4844933;29;20306;-85
2022/10/22 06:24:38;;;;;;;3.30;1.10;;;12.60;99.90;;;;;;4852630;29;20286;-87
2022/10/22 06:27:09;;;;;;;0.77;0.77;;;12.60;99.90;;;;;;4860850;29;20204;-86
2022/10/22 06:29:38;;;;;;;1.17;0.80;;;12.60;99.90;;;;;;4854111;29;20211;-86
2022/10/22 06:32:04;;;;;;;1.37;0.90;;;12.60;99.90;;;;;;4860771;29;20228;-86
2022/10/22 06:34:29;;;;;;;1.10;1.00;;;12.70;99.90;;;;;;4860611;29;20279;-87
2022/10/22 06:36:55;;;;;;;1.10;1.00;;;12.70;99.90;;;;;;4860980;29;20291;-87
2022/10/22 06:39:21;;;;;;;3.43;1.10;;;12.70;99.90;;;;;;4861154;29;20247;-86
2022/10/22 06:41:47;;;;;;;1.13;0.90;;;12.70;99.90;;;;;;4861983;29;20228;-89
2022/10/22 06:44:17;;;;;;;1.50;1.20;;;12.70;99.90;;;;;;4860727;29;20177;-87
2022/10/22 06:46:43;;;;;;;1.10;1.00;;;12.70;99.90;;;;;;4860660;29;20242;-87
2022/10/22 06:49:13;;;;;;;1.33;1.20;;;12.80;99.90;;;;;;4845796;29;20238;-87
2022/10/22 06:51:39;;;;;;;2.30;0.90;;;12.80;99.90;;;;;;4845140;29;20241;-87
2022/10/22 06:54:04;;;;;;;1.67;1.10;;;12.90;99.90;;;;;;4845780;29;20185;-87
2022/10/22 06:56:30;;;;;;;3.60;1.20;;;12.90;99.90;;;;;;4845311;29;20257;-87
2022/10/22 06:58:57;;;;;;;1.27;1.10;;;13.00;99.90;;;;;;4845236;29;20199;-87
2022/10/22 07:01:27;;;;;;;1.43;1.10;;;13.00;99.90;;;;;;4860341;29;20255;-87
2022/10/22 07:03:53;;;;;;;0.93;0.90;;;13.00;99.90;;;;;;4845163;29;20205;-87
2022/10/22 07:06:20;;;;;;;1.13;1.10;;;13.00;99.90;;;;;;4844903;29;20248;-87
2022/10/22 07:08:46;;;;;;;2.10;1.10;;;13.00;99.90;;;;;;4859586;29;20176;-87
2022/10/22 07:11:19;;;;;;;3.93;1.23;;;13.00;99.90;;;;;;4860050;29;20188;-87
2022/10/22 07:13:45;;;;;;;1.37;1.20;;;13.00;99.90;;;;;;4859812;29;20212;-87
2022/10/22 07:16:12;;;;;;;1.47;1.13;;;13.00;99.90;;;;;;4859909;29;20188;-87
2022/10/22 07:18:39;;;;;;;1.23;1.10;;;13.00;99.90;;;;;;4859847;29;20180;-87
2022/10/22 07:21:06;;;;;;;2.10;1.10;;;13.00;99.90;;;;;;4859541;29;20710;-87
2022/10/22 07:23:32;;;;;;;1.73;0.90;;;13.00;99.90;;;;;;4859506;29;20225;-86
2022/10/22 07:25:58;;;;;;;1.33;1.00;;;13.00;99.90;;;;;;4875093;29;20176;-82
2022/10/22 07:28:24;;;;;;;2.10;0.97;;;13.00;99.90;;;;;;4844889;29;20256;-78
2022/10/22 07:30:50;;;;;;;2.10;1.00;;;13.00;99.90;;;;;;4860944;29;20239;-80
2022/10/22 07:33:16;;;;;;;2.73;1.00;;;13.10;99.90;;;;;;4860869;29;20213;-86
2022/10/22 07:35:42;;;;;;;2.20;1.30;;;13.10;99.90;;;;;;4844371;29;20282;-86
2022/10/22 07:38:08;;;;;;;1.70;1.30;;;13.00;99.90;;;;;;4843815;29;20207;-85
2022/10/22 07:40:34;;;;;;;1.30;1.20;;;13.10;99.90;;;;;;4858782;29;20280;-86
2022/10/22 07:43:01;;;;;;;3.17;1.10;;;13.20;99.90;;;;;;4859585;29;20219;-85
2022/10/22 07:45:27;;;;;;;1.67;1.10;;;13.20;99.90;;;;;;4859481;29;20180;-85
2022/10/22 07:47:53;;;;;;;1.53;1.07;;;13.30;99.90;;;;;;4859789;29;20172;-86
2022/10/22 07:50:19;;;;;;;1.90;0.90;;;13.40;99.90;;;;;;4858580;29;20188;-85
2022/10/22 07:52:45;;;;;;;2.87;0.90;;;13.50;99.90;;;;;;4859103;29;20654;-85
2022/10/22 07:55:12;;;;;;;0.80;0.80;;;13.50;99.90;;;;;;4859205;29;20200;-85
2022/10/22 07:57:39;;;;;;;1.37;1.00;;;13.60;99.90;;;;;;4859332;29;20238;-86
2022/10/22 08:00:07;;;;;;;1.53;0.80;;;13.70;99.90;;;;;;4859523;29;20228;-85
2022/10/22 08:02:37;;;;;;;1.50;0.80;;;13.80;99.90;;;;;;4860402;29;20290;-85
2022/10/22 08:05:03;;;;;;;0.70;0.70;;;13.90;99.90;;;;;;4859265;29;20184;-86
2022/10/22 08:07:29;;;;;;;0.97;0.97;;;14.00;99.90;;;;;;4858936;29;20185;-86
2022/10/22 08:09:55;;;;;;;1.20;0.97;;;14.00;99.90;;;;;;4872782;29;20181;-85
2022/10/22 08:12:21;;;;;;;3.57;0.83;;;14.20;99.90;;;;;;4870900;29;20292;-86
2022/10/22 08:14:47;;;;;;;1.23;1.03;;;14.30;99.90;;;;;;4859395;29;20188;-86
2022/10/22 08:17:13;;;;;;;1.30;0.80;;;14.40;99.90;;;;;;4859261;29;20189;-86
2022/10/22 08:19:38;;;;;;;1.93;1.00;;;14.50;99.90;;;;;;4874703;29;20256;-86
2022/10/22 08:22:04;;;;;;;0.87;0.87;;;14.60;99.90;;;;;;4862404;29;20227;-86
2022/10/22 08:24:30;;;;;;;3.43;1.33;;;14.70;99.90;;;;;;4877587;29;20184;-86
2022/10/22 08:26:56;;;;;;;0.80;0.80;;;14.90;99.90;;;;;;4862631;29;20207;-86
2022/10/22 08:29:22;;;;;;;4.07;1.17;;;15.00;99.90;;;;;;4878209;29;20181;-86
2022/10/22 08:31:55;;;;;;;3.13;1.10;;;15.10;99.90;;;;;;4862380;29;20257;-86
2022/10/22 08:34:21;;;;;;;1.70;1.03;;;15.30;99.90;;;;;;4862598;29;20200;-86
2022/10/22 08:36:47;;;;;;;2.43;1.20;;;15.40;99.90;;;;;;4862579;29;20184;-86
2022/10/22 08:39:12;;;;;;;1.27;1.00;;;15.50;99.90;;;;;;4877325;29;20200;-86
2022/10/22 08:41:43;;;;;;;1.23;1.10;;;15.60;99.90;;;;;;4861807;29;20216;-86
2022/10/22 08:44:31;;;;;;;1.63;1.10;;;15.70;99.90;;;;;;4862418;29;20176;-86
2022/10/22 08:47:14;;;;;;;1.27;1.10;;;15.80;99.90;;;;;;4862052;29;20180;-86
2022/10/22 08:49:42;;;;;;;2.47;1.38;;;15.90;99.90;;;;;;4862299;29;20169;-86
2022/10/22 08:52:14;;;;;;;2.50;1.10;;;16.10;99.90;;;;;;4862325;29;20208;-86
2022/10/22 08:54:53;;;;;;;2.87;1.50;;;16.10;99.90;;;;;;4862345;29;20342;-86
2022/10/22 08:57:49;;;;;;;1.20;1.10;;;16.20;99.90;;;;;;4862096;29;20654;-86
2022/10/22 09:00:35;;;;;;;3.42;1.13;;;16.30;99.90;;;;;;4863587;29;20218;-86
2022/10/22 09:03:33;;;;;;;1.20;1.00;;;16.40;99.90;;;;;;4862255;29;20216;-85
2022/10/22 09:06:10;;;;;;;1.98;1.20;;;16.50;99.90;;;;;;4848906;29;20181;-86
2022/10/22 09:08:39;;;;;;;3.20;1.38;;;16.60;99.90;;;;;;4852471;29;20245;-86
2022/10/22 09:11:22;;;;;;;2.88;1.20;;;16.70;99.90;;;;;;4862092;29;20183;-86
2022/10/22 09:13:50;;;;;;;1.77;1.15;;;16.80;99.90;;;;;;4862303;29;20208;-86
2022/10/22 09:16:34;;;;;;;2.35;1.45;;;16.90;99.90;;;;;;4863481;29;20173;-86
2022/10/22 09:19:02;;;;;;;1.90;1.20;;;17.00;99.90;;;;;;4862040;29;20184;-86
2022/10/22 09:21:29;;;;;;;2.08;1.30;;;17.10;99.90;;;;;;4851469;29;20551;-85
2022/10/22 09:24:23;;;;;;;1.58;1.20;;;17.20;99.90;;;;;;4861998;29;20292;-76
2022/10/22 09:26:50;;;;;;;3.50;1.27;;;17.30;99.90;;;;;;4869694;29;20174;-84
2022/10/22 09:29:45;;;;;;;4.00;1.38;;;17.40;99.90;;;;;;4862095;29;20183;-85
2022/10/22 09:32:11;;;;;;;3.53;1.33;;;17.50;99.90;;;;;;4860928;29;20211;-85
2022/10/22 09:34:43;;;;;;;2.90;1.15;;;17.60;99.90;;;;;;4877357;29;20205;-84
2022/10/22 09:37:09;;;;;;;2.30;1.30;;;17.70;99.90;;;;;;4835985;29;20196;-84
2022/10/22 09:39:49;;;;;;;2.25;1.17;;;17.80;99.90;;;;;;4861604;29;20184;-84
2022/10/22 09:42:18;;;;;;;2.45;1.17;;;17.80;99.90;;;;;;4861482;29;20303;-84
2022/10/22 09:44:58;;;;;;;2.38;1.00;;;17.80;99.90;;;;;;4854876;29;20201;-84
2022/10/22 09:47:42;;;;;;;0.95;0.93;;;17.70;99.90;;;;;;4877470;29;20188;-84
2022/10/22 09:50:29;;;;;;;3.22;1.25;;;17.70;99.90;;;;;;4863157;29;20173;-84
2022/10/22 09:53:04;;;;;;;1.80;1.00;;;17.50;99.90;;;;;;4845614;29;20208;-84
2022/10/22 09:55:30;;;;;;;3.22;1.50;;;17.40;99.90;;;;;;4861768;29;20176;-84
2022/10/22 09:57:59;;;;;;;1.13;1.05;;;17.40;99.90;;;;;;4849939;29;20189;-84
2022/10/22 10:00:26;;;;;;;1.48;1.00;;;17.50;99.90;;;;;;4843609;29;20189;-85
2022/10/22 10:02:57;;;;;;;4.25;1.83;;;17.60;99.90;;;;;;4843027;29;20225;-85
2022/10/22 10:05:33;;;;;;;2.28;1.05;;;17.70;99.90;;;;;;4850480;29;20185;-84
2022/10/22 10:08:11;;;;;;;1.15;0.95;;;17.80;99.90;;;;;;4846106;29;20316;-84
2022/10/22 10:10:56;;;;;;;1.38;0.93;;;17.90;99.90;;;;;;4862068;29;20172;-84
2022/10/22 10:13:25;;;;;;;3.55;0.82;;;18.10;99.90;;;;;;4875810;29;20208;-84
2022/10/22 10:16:42;;;;;;;3.08;1.40;;;18.20;99.90;;;;;;4844574;29;20275;-84
2022/10/22 10:19:33;;;;;;;2.15;1.02;;;18.30;99.90;;;;;;4861510;29;20193;-87
2022/10/22 10:22:12;;;;;;;1.85;1.10;;;18.50;99.90;;;;;;4870938;29;20311;-86
2022/10/22 10:25:00;;;;;;;1.90;1.13;;;18.60;99.90;;;;;;4846434;29;20191;-86
2022/10/22 10:27:50;;;;;;;2.15;1.00;;;18.70;99.90;;;;;;4845393;29;20204;-86
2022/10/22 10:30:24;;;;;;;1.80;1.00;;;18.70;99.90;;;;;;4861199;29;20208;-87
2022/10/22 10:33:20;;;;;;;5.20;1.00;;;18.90;99.90;;;;;;4860970;29;20201;-86
2022/10/22 10:36:14;;;;;;;2.03;0.98;;;19.10;99.90;;;;;;4860867;29;20208;-86
2022/10/22 10:39:08;;;;;;;1.88;1.20;;;19.30;99.90;;;;;;4857059;29;20209;-86
2022/10/22 10:41:58;;;;;;;2.85;1.05;;;19.50;99.90;;;;;;4860590;29;20246;-87
2022/10/22 10:44:51;;;;;;;5.25;1.25;;;19.60;99.90;;;;;;4860008;29;20522;-86
2022/10/22 10:47:38;;;;;;;3.25;1.33;;;19.70;99.90;;;;;;4860786;29;20173;-86
2022/10/22 10:50:20;;;;;;;2.08;1.00;;;19.60;99.90;;;;;;4860837;29;20157;-86
2022/10/22 10:52:58;;;;;;;3.75;1.08;;;19.70;99.90;;;;;;4860457;29;20363;-86
2022/10/22 10:55:40;;;;;;;1.42;0.95;;;19.80;99.90;;;;;;4860371;29;20177;-86
2022/10/22 10:58:35;;;;;;;2.97;1.20;;;19.70;99.90;;;;;;4860516;29;20255;-86
2022/10/22 11:01:24;;;;;;;1.92;1.00;;;19.80;99.90;;;;;;4817009;29;20197;-86
2022/10/22 11:03:50;;;;;;;1.23;1.08;;;19.70;99.90;;;;;;4829624;29;20208;-86
2022/10/22 11:06:19;;;;;;;4.68;1.00;;;19.60;99.90;;;;;;4826420;29;20193;-86
2022/10/22 11:09:09;;;;;;;5.07;1.33;;;19.60;99.90;;;;;;4845988;29;20216;-86
2022/10/22 11:11:43;;;;;;;1.08;0.93;;;19.50;99.90;;;;;;4844539;29;20188;-86
2022/10/22 11:14:18;;;;;;;1.30;1.10;;;19.50;99.90;;;;;;4863635;29;20267;-86
2022/10/22 11:16:57;;;;;;;1.75;1.27;;;19.40;99.90;;;;;;4863188;29;20188;-88
2022/10/22 11:20:00;;;;;;;2.60;1.15;;;19.20;99.90;;;;;;4851777;29;20176;-87
2022/10/22 11:22:38;;;;;;;1.52;1.00;;;19.00;99.90;;;;;;4859858;29;20287;-86
2022/10/22 11:25:17;;;;;;;2.45;1.05;;;18.90;99.90;;;;;;4860516;29;20191;-86
2022/10/22 11:27:56;;;;;;;1.13;0.90;;;18.80;99.90;;;;;;4859930;29;20279;-87
2022/10/22 11:30:24;;;;;;;1.42;0.90;;;18.70;99.90;;;;;;4860468;29;20185;-87
2022/10/22 11:32:58;;;;;;;1.27;1.00;;;18.60;99.90;;;;;;4859452;29;20204;-87
2022/10/22 11:35:29;;;;;;;4.93;1.10;;;18.50;99.90;;;;;;4859738;29;20200;-87
2022/10/22 11:37:56;;;;;;;3.97;1.10;;;18.50;99.90;;;;;;4859731;29;20256;-87
2022/10/22 11:40:31;;;;;;;1.90;1.10;;;18.60;99.90;;;;;;4859656;29;20185;-87
2022/10/22 11:43:06;;;;;;;2.15;1.08;;;18.70;99.90;;;;;;4859925;29;20212;-86
2022/10/22 11:45:39;;;;;;;2.35;1.02;;;19.00;99.90;;;;;;4860758;29;20216;-83
2022/10/22 11:48:18;;;;;;;2.85;1.55;;;19.30;99.90;;;;;;4862876;29;20224;-87
2022/10/22 11:50:59;;;;;;;2.75;1.10;;;19.60;99.90;;;;;;4859913;29;20196;-84
2022/10/22 11:53:32;;;;;;;1.73;1.27;;;19.80;99.90;;;;;;4859713;29;20227;-87
2022/10/22 11:56:08;;;;;;;4.40;1.30;;;20.10;99.90;;;;;;4859419;29;20248;-87
2022/10/22 11:58:43;;;;;;;3.40;1.30;;;20.20;99.90;;;;;;4859450;29;20275;-87
2022/10/22 12:01:12;;;;;;;2.50;1.02;;;20.30;99.90;;;;;;4859283;29;20196;-87
2022/10/22 12:03:43;;;;;;;3.83;1.27;;;20.50;99.90;;;;;;4859403;29;20224;-87
2022/10/22 12:06:10;;;;;;;2.78;1.10;;;20.60;99.90;;;;;;4859437;29;20248;-87
2022/10/22 12:08:48;;;;;;;3.25;1.23;;;20.50;99.90;;;;;;4859331;29;20329;-87
2022/10/22 12:11:42;;;;;;;2.30;1.15;;;20.50;99.90;;;;;;4859439;29;20180;-87
2022/10/22 12:14:29;;;;;;;2.28;1.45;;;20.50;99.90;;;;;;4857480;29;20188;-87
2022/10/22 12:17:07;;;;;;;2.42;1.20;;;20.30;99.90;;;;;;4859043;29;20185;-87
2022/10/22 12:19:42;;;;;;;6.55;1.50;;;20.30;99.90;;;;;;4859147;29;20216;-87
2022/10/22 12:22:21;;;;;;;2.35;1.20;;;20.30;99.90;;;;;;4858867;29;20216;-88
2022/10/22 12:25:15;;;;;;;2.78;1.20;;;20.50;99.90;;;;;;4859145;29;20252;-87
2022/10/22 12:27:41;;;;;;;2.20;1.17;;;20.70;99.90;;;;;;4859617;29;20185;-87
2022/10/22 12:30:22;;;;;;;1.67;1.20;;;20.70;99.90;;;;;;4859588;29;20191;-87
2022/10/22 12:33:01;;;;;;;2.90;1.25;;;20.80;99.90;;;;;;4860237;29;20220;-86
2022/10/22 12:35:40;;;;;;;2.50;1.13;;;20.90;99.90;;;;;;4860226;29;20260;-87
2022/10/22 12:38:15;;;;;;;2.05;1.08;;;20.80;99.90;;;;;;4858780;29;20203;-86
2022/10/22 12:40:41;;;;;;;2.80;1.10;;;20.90;99.90;;;;;;4858899;29;20283;-84
2022/10/22 12:43:29;;;;;;;2.08;0.95;;;21.10;99.90;;;;;;4858752;29;20212;-83
2022/10/22 12:45:58;;;;;;;1.75;1.10;;;21.20;99.90;;;;;;4844108;29;20212;-85
2022/10/22 12:48:33;;;;;;;2.60;1.88;;;21.30;99.90;;;;;;4844557;29;20172;-84
2022/10/22 12:51:02;;;;;;;2.92;1.20;;;21.30;99.90;;;;;;4851228;29;20184;-86
2022/10/22 12:53:41;;;;;;;1.77;1.10;;;21.30;99.90;;;;;;4853136;29;20213;-87
2022/10/22 12:56:19;;;;;;;3.03;1.20;;;21.40;99.90;;;;;;4858834;29;20177;-87
2022/10/22 12:58:56;;;;;;;3.80;1.10;;;21.50;99.90;;;;;;4855845;29;20216;-87
2022/10/22 13:01:28;;;;;;;1.10;1.00;;;21.40;99.90;;;;;;4843620;29;20185;-87
2022/10/22 13:04:11;;;;;;;4.60;1.50;;;21.50;99.90;;;;;;4857680;29;20300;-87
2022/10/22 13:06:44;;;;;;;4.15;1.30;;;21.50;99.90;;;;;;4859215;29;20253;-89
2022/10/22 13:09:16;;;;;;;4.15;1.25;;;21.60;99.90;;;;;;4848112;29;20253;-90
2022/10/22 13:12:03;;;;;;;1.92;1.05;;;21.70;99.90;;;;;;4862514;29;20199;-89